sensor_id;sensor_type;location;lat;lon;timestamp;temperature;humidity
52203;DHT22;38173;52.850;6.970;2022-12-05T00:02:16;3.60;99.90
52203;DHT22;38173;52.850;6.970;2022-12-05T00:04:42;3.60;99.90
52203;DHT22;38173;52.850;6.970;2022-12-05T00:07:08;3.70;99.90
52203;DHT22;38173;52.850;6.970;2022-12-05T00:09:34;3.70;99.90
52203;DHT22;38173;52.850;6.970;2022-12-05T00:11:59;3.70;99.90
52203;DHT22;38173;52.850;6.970;2022-12-05T00:14:25;3.70;99.90
52203;DHT22;38173;52.850;6.970;2022-12-05T00:16:51;3.80;99.90
52203;DHT22;38173;52.850;6.970;2022-12-05T00:19:16;3.80;99.90
52203;DHT22;38173;52.850;6.970;2022-12-05T00:21:42;3.80;99.90
52203;DHT22;38173;52.850;6.970;2022-12-05T00:24:09;3.80;99.90
52203;DHT22;38173;52.850;6.970;2022-12-05T00:26:35;3.80;99.90
52203;DHT22;38173;52.850;6.970;2022-12-05T00:29:01;3.80;99.90
52203;DHT22;38173;52.850;6.970;2022-12-05T00:31:27;3.80;99.90
52203;DHT22;38173;52.850;6.970;2022-12-05T00:33:53;3.80;99.90
52203;DHT22;38173;52.850;6.970;2022-12-05T00:36:23;3.70;99.90
52203;DHT22;38173;52.850;6.970;2022-12-05T00:38:49;3.80;99.90
52203;DHT22;38173;52.850;6.970;2022-12-05T00:41:16;3.70;99.90
52203;DHT22;38173;52.850;6.970;2022-12-05T00:43:42;3.80;99.90
52203;DHT22;38173;52.850;6.970;2022-12-05T00:46:10;3.70;99.90
52203;DHT22;38173;52.850;6.970;2022-12-05T00:48:37;3.80;99.90
52203;DHT22;38173;52.850;6.970;2022-12-05T00:51:07;3.70;99.90
52203;DHT22;38173;52.850;6.970;2022-12-05T00:53:33;3.80;99.90
52203;DHT22;38173;52.850;6.970;2022-12-05T00:56:03;3.80;99.90
52203;DHT22;38173;52.850;6.970;2022-12-05T00:58:30;3.80;99.90
52203;DHT22;38173;52.850;6.970;2022-12-05T01:00:56;3.80;99.90
52203;DHT22;38173;52.850;6.970;2022-12-05T01:03:22;3.80;99.90
52203;DHT22;38173;52.850;6.970;2022-12-05T01:05:48;3.80;99.90
52203;DHT22;38173;52.850;6.970;2022-12-05T01:08:18;3.80;99.90
52203;DHT22;38173;52.850;6.970;2022-12-05T01:10:53;3.80;99.90
52203;DHT22;38173;52.850;6.970;2022-12-05T01:13:20;3.80;99.90
52203;DHT22;38173;52.850;6.970;2022-12-05T01:15:46;3.90;99.90
52203;DHT22;38173;52.850;6.970;2022-12-05T01:18:12;3.90;99.90
52203;DHT22;38173;52.850;6.970;2022-12-05T01:20:44;3.90;99.90
52203;DHT22;38173;52.850;6.970;2022-12-05T01:23:10;3.90;99.90
52203;DHT22;38173;52.850;6.970;2022-12-05T01:25:40;3.90;99.90
52203;DHT22;38173;52.850;6.970;2022-12-05T01:28:06;4.00;99.90
52203;DHT22;38173;52.850;6.970;2022-12-05T01:30:42;3.90;99.90
52203;DHT22;38173;52.850;6.970;2022-12-05T01:33:08;3.90;99.90
52203;DHT22;38173;52.850;6.970;2022-12-05T01:35:34;3.90;99.90
52203;DHT22;38173;52.850;6.970;2022-12-05T01:38:00;3.90;99.90
52203;DHT22;38173;52.850;6.970;2022-12-05T01:40:26;4.00;99.90
52203;DHT22;38173;52.850;6.970;2022-12-05T01:42:53;4.00;99.90
52203;DHT22;38173;52.850;6.970;2022-12-05T01:45:32;4.00;99.90
52203;DHT22;38173;52.850;6.970;2022-12-05T01:48:02;3.90;99.90
52203;DHT22;38173;52.850;6.970;2022-12-05T01:50:31;3.90;99.90
52203;DHT22;38173;52.850;6.970;2022-12-05T01:52:58;4.00;99.90
52203;DHT22;38173;52.850;6.970;2022-12-05T01:55:24;3.90;99.90
52203;DHT22;38173;52.850;6.970;2022-12-05T01:57:50;3.90;99.90
52203;DHT22;38173;52.850;6.970;2022-12-05T02:00:17;3.90;99.90
52203;DHT22;38173;52.850;6.970;2022-12-05T02:02:48;3.90;99.90
52203;DHT22;38173;52.850;6.970;2022-12-05T02:05:28;4.00;99.90
52203;DHT22;38173;52.850;6.970;2022-12-05T02:07:55;4.00;99.90
52203;DHT22;38173;52.850;6.970;2022-12-05T02:10:21;3.90;99.90
52203;DHT22;38173;52.850;6.970;2022-12-05T02:12:48;4.00;99.90
52203;DHT22;38173;52.850;6.970;2022-12-05T02:17:52;4.00;99.90
52203;DHT22;38173;52.850;6.970;2022-12-05T02:28:50;4.00;99.90
52203;DHT22;38173;52.850;6.970;2022-12-05T02:36:34;4.00;99.90
52203;DHT22;38173;52.850;6.970;2022-12-05T02:39:18;4.10;99.90
52203;DHT22;38173;52.850;6.970;2022-12-05T02:41:51;4.10;99.90
52203;DHT22;38173;52.850;6.970;2022-12-05T02:44:53;4.10;99.90
52203;DHT22;38173;52.850;6.970;2022-12-05T02:47:10;4.10;99.90
52203;DHT22;38173;52.850;6.970;2022-12-05T02:49:40;4.10;99.90
52203;DHT22;38173;52.850;6.970;2022-12-05T02:52:16;4.20;99.90
52203;DHT22;38173;52.850;6.970;2022-12-05T02:54:45;4.10;99.90
52203;DHT22;38173;52.850;6.970;2022-12-05T02:57:12;4.10;99.90
52203;DHT22;38173;52.850;6.970;2022-12-05T02:59:39;4.10;99.90
52203;DHT22;38173;52.850;6.970;2022-12-05T03:02:08;4.10;99.90
52203;DHT22;38173;52.850;6.970;2022-12-05T03:04:46;4.20;99.90
52203;DHT22;38173;52.850;6.970;2022-12-05T03:07:12;4.20;99.90
52203;DHT22;38173;52.850;6.970;2022-12-05T03:09:49;4.20;99.90
52203;DHT22;38173;52.850;6.970;2022-12-05T03:12:25;4.20;99.90
52203;DHT22;38173;52.850;6.970;2022-12-05T03:14:53;4.20;99.90
52203;DHT22;38173;52.850;6.970;2022-12-05T03:17:21;4.20;99.90
52203;DHT22;38173;52.850;6.970;2022-12-05T03:25:16;4.30;99.90
52203;DHT22;38173;52.850;6.970;2022-12-05T03:27:47;4.20;99.90
52203;DHT22;38173;52.850;6.970;2022-12-05T03:30:15;4.20;99.90
52203;DHT22;38173;52.850;6.970;2022-12-05T03:32:44;4.20;99.90
52203;DHT22;38173;52.850;6.970;2022-12-05T03:35:33;4.20;99.90
52203;DHT22;38173;52.850;6.970;2022-12-05T03:38:02;4.20;99.90
52203;DHT22;38173;52.850;6.970;2022-12-05T03:43:09;4.20;99.90
52203;DHT22;38173;52.850;6.970;2022-12-05T03:48:18;4.30;99.90
52203;DHT22;38173;52.850;6.970;2022-12-05T03:50:47;4.30;99.90
52203;DHT22;38173;52.850;6.970;2022-12-05T03:53:21;4.20;99.90
52203;DHT22;38173;52.850;6.970;2022-12-05T03:55:53;4.30;99.90
52203;DHT22;38173;52.850;6.970;2022-12-05T03:58:25;4.20;99.90
52203;DHT22;38173;52.850;6.970;2022-12-05T04:00:51;4.30;99.90
52203;DHT22;38173;52.850;6.970;2022-12-05T04:03:39;4.20;99.90
52203;DHT22;38173;52.850;6.970;2022-12-05T04:06:07;4.30;99.90
52203;DHT22;38173;52.850;6.970;2022-12-05T04:08:36;4.30;99.90
52203;DHT22;38173;52.850;6.970;2022-12-05T04:11:07;4.30;99.90
52203;DHT22;38173;52.850;6.970;2022-12-05T04:13:45;4.30;99.90
52203;DHT22;38173;52.850;6.970;2022-12-05T04:16:22;4.30;99.90
52203;DHT22;38173;52.850;6.970;2022-12-05T04:19:10;4.30;99.90
52203;DHT22;38173;52.850;6.970;2022-12-05T04:21:43;4.30;99.90
52203;DHT22;38173;52.850;6.970;2022-12-05T04:24:12;4.30;99.90
52203;DHT22;38173;52.850;6.970;2022-12-05T04:29:36;4.30;99.90
52203;DHT22;38173;52.850;6.970;2022-12-05T04:32:03;4.30;99.90
52203;DHT22;38173;52.850;6.970;2022-12-05T04:34:30;4.30;99.90
52203;DHT22;38173;52.850;6.970;2022-12-05T04:37:01;4.30;99.90
52203;DHT22;38173;52.850;6.970;2022-12-05T04:39:32;4.40;99.90
52203;DHT22;38173;52.850;6.970;2022-12-05T04:42:09;4.40;99.90
52203;DHT22;38173;52.850;6.970;2022-12-05T04:44:41;4.40;99.90
52203;DHT22;38173;52.850;6.970;2022-12-05T04:47:08;4.40;99.90
52203;DHT22;38173;52.850;6.970;2022-12-05T04:49:34;4.40;99.90
52203;DHT22;38173;52.850;6.970;2022-12-05T04:52:02;4.40;99.90
52203;DHT22;38173;52.850;6.970;2022-12-05T04:54:51;4.40;99.90
52203;DHT22;38173;52.850;6.970;2022-12-05T04:57:21;4.40;99.90
52203;DHT22;38173;52.850;6.970;2022-12-05T04:59:48;4.40;99.90
52203;DHT22;38173;52.850;6.970;2022-12-05T05:02:16;4.50;99.90
52203;DHT22;38173;52.850;6.970;2022-12-05T05:04:44;4.50;99.90
52203;DHT22;38173;52.850;6.970;2022-12-05T05:07:20;4.50;99.90
52203;DHT22;38173;52.850;6.970;2022-12-05T05:09:46;4.50;99.90
52203;DHT22;38173;52.850;6.970;2022-12-05T05:12:11;4.40;99.90
52203;DHT22;38173;52.850;6.970;2022-12-05T05:14:39;4.40;99.90
52203;DHT22;38173;52.850;6.970;2022-12-05T05:17:06;4.40;99.90
52203;DHT22;38173;52.850;6.970;2022-12-05T05:19:31;4.40;99.90
52203;DHT22;38173;52.850;6.970;2022-12-05T05:22:02;4.40;99.90
52203;DHT22;38173;52.850;6.970;2022-12-05T05:24:28;4.50;99.90
52203;DHT22;38173;52.850;6.970;2022-12-05T05:26:57;4.40;99.90
52203;DHT22;38173;52.850;6.970;2022-12-05T05:29:23;4.40;99.90
52203;DHT22;38173;52.850;6.970;2022-12-05T05:31:49;4.50;99.90
52203;DHT22;38173;52.850;6.970;2022-12-05T05:34:14;4.40;99.90
52203;DHT22;38173;52.850;6.970;2022-12-05T05:36:40;4.50;99.90
52203;DHT22;38173;52.850;6.970;2022-12-05T05:39:09;4.50;99.90
52203;DHT22;38173;52.850;6.970;2022-12-05T05:41:36;4.50;99.90
52203;DHT22;38173;52.850;6.970;2022-12-05T05:44:03;4.50;99.90
52203;DHT22;38173;52.850;6.970;2022-12-05T05:46:29;4.50;99.90
52203;DHT22;38173;52.850;6.970;2022-12-05T05:49:01;4.50;99.90
52203;DHT22;38173;52.850;6.970;2022-12-05T05:51:28;4.50;99.90
52203;DHT22;38173;52.850;6.970;2022-12-05T05:54:05;4.50;99.90
52203;DHT22;38173;52.850;6.970;2022-12-05T05:56:32;4.50;99.90
52203;DHT22;38173;52.850;6.970;2022-12-05T05:58:59;4.50;99.90
52203;DHT22;38173;52.850;6.970;2022-12-05T06:01:26;4.50;99.90
52203;DHT22;38173;52.850;6.970;2022-12-05T06:03:53;4.50;99.90
52203;DHT22;38173;52.850;6.970;2022-12-05T06:06:19;4.50;99.90
52203;DHT22;38173;52.850;6.970;2022-12-05T06:08:45;4.50;99.90
52203;DHT22;38173;52.850;6.970;2022-12-05T06:11:16;4.40;99.90
52203;DHT22;38173;52.850;6.970;2022-12-05T06:13:41;4.50;99.90
52203;DHT22;38173;52.850;6.970;2022-12-05T06:16:08;4.50;99.90
52203;DHT22;38173;52.850;6.970;2022-12-05T06:18:34;4.50;99.90
52203;DHT22;38173;52.850;6.970;2022-12-05T06:21:00;4.50;99.90
52203;DHT22;38173;52.850;6.970;2022-12-05T06:23:26;4.50;99.90
52203;DHT22;38173;52.850;6.970;2022-12-05T06:25:53;4.40;99.90
52203;DHT22;38173;52.850;6.970;2022-12-05T06:28:22;4.50;99.90
52203;DHT22;38173;52.850;6.970;2022-12-05T06:30:49;4.50;99.90
52203;DHT22;38173;52.850;6.970;2022-12-05T06:33:15;4.50;99.90
52203;DHT22;38173;52.850;6.970;2022-12-05T06:35:40;4.40;99.90
52203;DHT22;38173;52.850;6.970;2022-12-05T06:38:08;4.40;99.90
52203;DHT22;38173;52.850;6.970;2022-12-05T06:40:38;4.40;99.90
52203;DHT22;38173;52.850;6.970;2022-12-05T06:43:04;4.50;99.90
52203;DHT22;38173;52.850;6.970;2022-12-05T06:45:29;4.40;99.90
52203;DHT22;38173;52.850;6.970;2022-12-05T06:47:55;4.50;99.90
52203;DHT22;38173;52.850;6.970;2022-12-05T06:50:21;4.40;99.90
52203;DHT22;38173;52.850;6.970;2022-12-05T06:52:46;4.50;99.90
52203;DHT22;38173;52.850;6.970;2022-12-05T06:55:12;4.40;99.90
52203;DHT22;38173;52.850;6.970;2022-12-05T06:57:37;4.50;99.90
52203;DHT22;38173;52.850;6.970;2022-12-05T07:00:03;4.40;99.90
52203;DHT22;38173;52.850;6.970;2022-12-05T07:02:51;4.40;99.90
52203;DHT22;38173;52.850;6.970;2022-12-05T07:05:16;4.40;99.90
52203;DHT22;38173;52.850;6.970;2022-12-05T07:07:42;4.50;99.90
52203;DHT22;38173;52.850;6.970;2022-12-05T07:10:08;4.50;99.90
52203;DHT22;38173;52.850;6.970;2022-12-05T07:12:33;4.50;99.90
52203;DHT22;38173;52.850;6.970;2022-12-05T07:14:59;4.50;99.90
52203;DHT22;38173;52.850;6.970;2022-12-05T07:17:25;4.50;99.90
52203;DHT22;38173;52.850;6.970;2022-12-05T07:19:50;4.40;99.90
52203;DHT22;38173;52.850;6.970;2022-12-05T07:22:17;4.50;99.90
52203;DHT22;38173;52.850;6.970;2022-12-05T07:24:43;4.50;99.90
52203;DHT22;38173;52.850;6.970;2022-12-05T07:27:09;4.50;99.90
52203;DHT22;38173;52.850;6.970;2022-12-05T07:29:35;4.50;99.90
52203;DHT22;38173;52.850;6.970;2022-12-05T07:32:00;4.50;99.90
52203;DHT22;38173;52.850;6.970;2022-12-05T07:34:26;4.50;99.90
52203;DHT22;38173;52.850;6.970;2022-12-05T07:36:52;4.50;99.90
52203;DHT22;38173;52.850;6.970;2022-12-05T07:39:17;4.60;99.90
52203;DHT22;38173;52.850;6.970;2022-12-05T07:41:43;4.60;99.90
52203;DHT22;38173;52.850;6.970;2022-12-05T07:44:09;4.60;99.90
52203;DHT22;38173;52.850;6.970;2022-12-05T07:46:35;4.50;99.90
52203;DHT22;38173;52.850;6.970;2022-12-05T07:49:01;4.60;99.90
52203;DHT22;38173;52.850;6.970;2022-12-05T07:51:27;4.60;99.90
52203;DHT22;38173;52.850;6.970;2022-12-05T07:53:53;4.60;99.90
52203;DHT22;38173;52.850;6.970;2022-12-05T07:56:18;4.60;99.90
52203;DHT22;38173;52.850;6.970;2022-12-05T07:58:45;4.60;99.90
52203;DHT22;38173;52.850;6.970;2022-12-05T08:01:15;4.70;99.90
52203;DHT22;38173;52.850;6.970;2022-12-05T08:03:41;4.60;99.90
52203;DHT22;38173;52.850;6.970;2022-12-05T08:06:08;4.60;99.90
52203;DHT22;38173;52.850;6.970;2022-12-05T08:08:34;4.70;99.90
52203;DHT22;38173;52.850;6.970;2022-12-05T08:11:07;4.70;99.90
52203;DHT22;38173;52.850;6.970;2022-12-05T08:13:33;4.70;99.90
52203;DHT22;38173;52.850;6.970;2022-12-05T08:15:59;4.70;99.90
52203;DHT22;38173;52.850;6.970;2022-12-05T08:18:25;4.70;99.90
52203;DHT22;38173;52.850;6.970;2022-12-05T08:20:51;4.70;99.90
52203;DHT22;38173;52.850;6.970;2022-12-05T08:23:16;4.70;99.90
52203;DHT22;38173;52.850;6.970;2022-12-05T08:25:42;4.70;99.90
52203;DHT22;38173;52.850;6.970;2022-12-05T08:28:07;4.70;99.90
52203;DHT22;38173;52.850;6.970;2022-12-05T08:30:33;4.70;99.90
52203;DHT22;38173;52.850;6.970;2022-12-05T08:32:59;4.70;99.90
52203;DHT22;38173;52.850;6.970;2022-12-05T08:35:24;4.70;99.90
52203;DHT22;38173;52.850;6.970;2022-12-05T08:37:50;4.70;99.90
52203;DHT22;38173;52.850;6.970;2022-12-05T08:40:16;4.70;99.90
52203;DHT22;38173;52.850;6.970;2022-12-05T08:42:42;4.70;99.90
52203;DHT22;38173;52.850;6.970;2022-12-05T08:45:07;4.70;99.90
52203;DHT22;38173;52.850;6.970;2022-12-05T08:47:33;4.70;99.90
52203;DHT22;38173;52.850;6.970;2022-12-05T08:49:58;4.70;99.90
52203;DHT22;38173;52.850;6.970;2022-12-05T08:52:24;4.70;99.90
52203;DHT22;38173;52.850;6.970;2022-12-05T08:54:50;4.80;99.90
52203;DHT22;38173;52.850;6.970;2022-12-05T08:57:16;4.70;99.90
52203;DHT22;38173;52.850;6.970;2022-12-05T08:59:41;4.70;99.90
52203;DHT22;38173;52.850;6.970;2022-12-05T09:02:07;4.70;99.90
52203;DHT22;38173;52.850;6.970;2022-12-05T09:04:33;4.70;99.90
52203;DHT22;38173;52.850;6.970;2022-12-05T09:07:00;4.70;99.90
52203;DHT22;38173;52.850;6.970;2022-12-05T09:09:25;4.70;99.90
52203;DHT22;38173;52.850;6.970;2022-12-05T09:11:51;4.70;99.90
52203;DHT22;38173;52.850;6.970;2022-12-05T09:14:17;4.80;99.90
52203;DHT22;38173;52.850;6.970;2022-12-05T09:16:44;4.80;99.90
52203;DHT22;38173;52.850;6.970;2022-12-05T09:19:11;4.80;99.90
52203;DHT22;38173;52.850;6.970;2022-12-05T09:21:38;4.70;99.90
52203;DHT22;38173;52.850;6.970;2022-12-05T09:24:03;4.70;99.90
52203;DHT22;38173;52.850;6.970;2022-12-05T09:26:29;4.70;99.90
52203;DHT22;38173;52.850;6.970;2022-12-05T09:28:55;4.70;99.90
52203;DHT22;38173;52.850;6.970;2022-12-05T09:31:22;4.70;99.90
52203;DHT22;38173;52.850;6.970;2022-12-05T09:33:48;4.70;99.90
52203;DHT22;38173;52.850;6.970;2022-12-05T09:38:40;4.70;99.90
52203;DHT22;38173;52.850;6.970;2022-12-05T09:49:14;4.60;99.90
52203;DHT22;38173;52.850;6.970;2022-12-05T09:51:41;4.70;99.90
52203;DHT22;38173;52.850;6.970;2022-12-05T09:54:08;4.70;99.90
52203;DHT22;38173;52.850;6.970;2022-12-05T09:56:35;4.70;99.90
52203;DHT22;38173;52.850;6.970;2022-12-05T09:59:02;4.70;99.90
52203;DHT22;38173;52.850;6.970;2022-12-05T10:01:40;4.70;99.90
52203;DHT22;38173;52.850;6.970;2022-12-05T10:17:31;4.60;99.90
52203;DHT22;38173;52.850;6.970;2022-12-05T10:19:59;4.70;99.90
52203;DHT22;38173;52.850;6.970;2022-12-05T10:22:49;4.70;99.90
52203;DHT22;38173;52.850;6.970;2022-12-05T10:25:13;4.60;99.90
52203;DHT22;38173;52.850;6.970;2022-12-05T10:27:45;4.70;99.90
52203;DHT22;38173;52.850;6.970;2022-12-05T10:30:23;4.60;99.90
52203;DHT22;38173;52.850;6.970;2022-12-05T10:32:53;4.70;99.90
52203;DHT22;38173;52.850;6.970;2022-12-05T10:35:26;4.60;99.90
52203;DHT22;38173;52.850;6.970;2022-12-05T10:37:57;4.60;99.90
52203;DHT22;38173;52.850;6.970;2022-12-05T10:40:25;4.70;99.90
52203;DHT22;38173;52.850;6.970;2022-12-05T10:42:51;4.60;99.90
52203;DHT22;38173;52.850;6.970;2022-12-05T10:45:21;4.70;99.90
52203;DHT22;38173;52.850;6.970;2022-12-05T10:47:48;4.70;99.90
52203;DHT22;38173;52.850;6.970;2022-12-05T10:50:25;4.70;99.90
52203;DHT22;38173;52.850;6.970;2022-12-05T10:52:52;4.70;99.90
52203;DHT22;38173;52.850;6.970;2022-12-05T10:55:18;4.60;99.90
52203;DHT22;38173;52.850;6.970;2022-12-05T10:57:50;4.70;99.90
52203;DHT22;38173;52.850;6.970;2022-12-05T11:00:18;4.70;99.90
52203;DHT22;38173;52.850;6.970;2022-12-05T11:02:44;4.70;99.90
52203;DHT22;38173;52.850;6.970;2022-12-05T11:05:11;4.60;99.90
52203;DHT22;38173;52.850;6.970;2022-12-05T11:10:26;4.60;99.90
52203;DHT22;38173;52.850;6.970;2022-12-05T11:12:55;4.70;99.90
52203;DHT22;38173;52.850;6.970;2022-12-05T11:15:23;4.60;99.90
52203;DHT22;38173;52.850;6.970;2022-12-05T11:17:51;4.60;99.90
52203;DHT22;38173;52.850;6.970;2022-12-05T11:22:43;4.60;99.90
52203;DHT22;38173;52.850;6.970;2022-12-05T11:27:54;4.70;99.90
52203;DHT22;38173;52.850;6.970;2022-12-05T11:30:21;4.70;99.90
52203;DHT22;38173;52.850;6.970;2022-12-05T11:32:47;4.60;99.90
52203;DHT22;38173;52.850;6.970;2022-12-05T11:35:26;4.70;99.90
52203;DHT22;38173;52.850;6.970;2022-12-05T11:37:59;4.60;99.90
52203;DHT22;38173;52.850;6.970;2022-12-05T11:48:29;4.70;99.90
52203;DHT22;38173;52.850;6.970;2022-12-05T11:53:35;4.70;99.90
52203;DHT22;38173;52.850;6.970;2022-12-05T11:58:37;4.70;99.90
52203;DHT22;38173;52.850;6.970;2022-12-05T12:08:29;4.70;99.90
52203;DHT22;38173;52.850;6.970;2022-12-05T12:13:57;4.70;99.90
52203;DHT22;38173;52.850;6.970;2022-12-05T12:19:25;4.70;99.90
52203;DHT22;38173;52.850;6.970;2022-12-05T12:22:06;4.70;99.90
52203;DHT22;38173;52.850;6.970;2022-12-05T12:30:20;4.70;99.90
52203;DHT22;38173;52.850;6.970;2022-12-05T12:40:20;4.80;99.90
52203;DHT22;38173;52.850;6.970;2022-12-05T12:43:24;4.80;99.90
52203;DHT22;38173;52.850;6.970;2022-12-05T12:45:44;4.80;99.90
52203;DHT22;38173;52.850;6.970;2022-12-05T12:50:41;4.80;99.90
52203;DHT22;38173;52.850;6.970;2022-12-05T13:03:52;4.80;99.90
52203;DHT22;38173;52.850;6.970;2022-12-05T13:06:23;4.80;99.90
52203;DHT22;38173;52.850;6.970;2022-12-05T13:08:53;4.80;99.90
52203;DHT22;38173;52.850;6.970;2022-12-05T13:11:20;4.80;99.90
52203;DHT22;38173;52.850;6.970;2022-12-05T13:13:47;4.70;99.90
52203;DHT22;38173;52.850;6.970;2022-12-05T13:16:38;4.70;99.90
52203;DHT22;38173;52.850;6.970;2022-12-05T13:19:00;4.70;99.90
52203;DHT22;38173;52.850;6.970;2022-12-05T13:21:28;4.80;99.90
52203;DHT22;38173;52.850;6.970;2022-12-05T13:23:57;4.70;99.90
52203;DHT22;38173;52.850;6.970;2022-12-05T13:26:28;4.80;99.90
52203;DHT22;38173;52.850;6.970;2022-12-05T13:28:55;4.70;99.90
52203;DHT22;38173;52.850;6.970;2022-12-05T13:31:36;4.80;99.90
52203;DHT22;38173;52.850;6.970;2022-12-05T13:34:05;4.70;99.90
52203;DHT22;38173;52.850;6.970;2022-12-05T13:36:38;4.70;99.90
52203;DHT22;38173;52.850;6.970;2022-12-05T13:39:22;4.70;99.90
52203;DHT22;38173;52.850;6.970;2022-12-05T13:42:52;4.70;99.90
52203;DHT22;38173;52.850;6.970;2022-12-05T13:50:18;4.70;99.90
52203;DHT22;38173;52.850;6.970;2022-12-05T14:07:56;4.70;99.90
52203;DHT22;38173;52.850;6.970;2022-12-05T14:12:55;4.70;99.90
52203;DHT22;38173;52.850;6.970;2022-12-05T14:15:37;4.70;99.90
52203;DHT22;38173;52.850;6.970;2022-12-05T14:25:56;4.70;99.90
52203;DHT22;38173;52.850;6.970;2022-12-05T14:33:38;4.70;99.90
52203;DHT22;38173;52.850;6.970;2022-12-05T14:36:11;4.60;99.90
52203;DHT22;38173;52.850;6.970;2022-12-05T14:38:39;4.70;99.90
52203;DHT22;38173;52.850;6.970;2022-12-05T14:43:52;4.70;99.90
52203;DHT22;38173;52.850;6.970;2022-12-05T14:46:23;4.70;99.90
52203;DHT22;38173;52.850;6.970;2022-12-05T14:48:49;4.60;99.90
52203;DHT22;38173;52.850;6.970;2022-12-05T14:54:05;4.70;99.90
52203;DHT22;38173;52.850;6.970;2022-12-05T14:56:31;4.60;99.90
52203;DHT22;38173;52.850;6.970;2022-12-05T15:01:28;4.60;99.90
52203;DHT22;38173;52.850;6.970;2022-12-05T15:09:20;4.60;99.90
52203;DHT22;38173;52.850;6.970;2022-12-05T15:11:49;4.60;99.90
52203;DHT22;38173;52.850;6.970;2022-12-05T15:14:19;4.60;99.90
52203;DHT22;38173;52.850;6.970;2022-12-05T15:16:45;4.60;99.90
52203;DHT22;38173;52.850;6.970;2022-12-05T15:19:25;4.60;99.90
52203;DHT22;38173;52.850;6.970;2022-12-05T15:21:56;4.60;99.90
52203;DHT22;38173;52.850;6.970;2022-12-05T15:24:22;4.60;99.90
52203;DHT22;38173;52.850;6.970;2022-12-05T15:26:49;4.60;99.90
52203;DHT22;38173;52.850;6.970;2022-12-05T15:29:22;4.60;99.90
52203;DHT22;38173;52.850;6.970;2022-12-05T15:36:49;4.60;99.90
52203;DHT22;38173;52.850;6.970;2022-12-05T15:39:20;4.60;99.90
52203;DHT22;38173;52.850;6.970;2022-12-05T15:41:56;4.60;99.90
52203;DHT22;38173;52.850;6.970;2022-12-05T15:44:26;4.60;99.90
52203;DHT22;38173;52.850;6.970;2022-12-05T15:46:52;4.50;99.90
52203;DHT22;38173;52.850;6.970;2022-12-05T15:49:25;4.60;99.90
52203;DHT22;38173;52.850;6.970;2022-12-05T15:51:52;4.50;99.90
52203;DHT22;38173;52.850;6.970;2022-12-05T15:54:32;4.50;99.90
52203;DHT22;38173;52.850;6.970;2022-12-05T15:57:02;4.60;99.90
52203;DHT22;38173;52.850;6.970;2022-12-05T15:59:37;4.50;99.90
52203;DHT22;38173;52.850;6.970;2022-12-05T16:02:14;4.50;99.90
52203;DHT22;38173;52.850;6.970;2022-12-05T16:04:45;4.50;99.90
52203;DHT22;38173;52.850;6.970;2022-12-05T16:07:20;4.50;99.90
52203;DHT22;38173;52.850;6.970;2022-12-05T16:09:48;4.50;99.90
52203;DHT22;38173;52.850;6.970;2022-12-05T16:12:23;4.50;99.90
52203;DHT22;38173;52.850;6.970;2022-12-05T16:14:50;4.50;99.90
52203;DHT22;38173;52.850;6.970;2022-12-05T16:17:17;4.50;99.90
52203;DHT22;38173;52.850;6.970;2022-12-05T16:19:46;4.50;99.90
52203;DHT22;38173;52.850;6.970;2022-12-05T16:24:45;4.50;99.90
52203;DHT22;38173;52.850;6.970;2022-12-05T16:32:57;4.50;99.90
52203;DHT22;38173;52.850;6.970;2022-12-05T16:40:29;4.50;99.90
52203;DHT22;38173;52.850;6.970;2022-12-05T16:43:39;4.40;99.90
52203;DHT22;38173;52.850;6.970;2022-12-05T16:45:44;4.50;99.90
52203;DHT22;38173;52.850;6.970;2022-12-05T16:48:21;4.50;99.90
52203;DHT22;38173;52.850;6.970;2022-12-05T16:50:47;4.50;99.90
52203;DHT22;38173;52.850;6.970;2022-12-05T16:55:39;4.40;99.90
52203;DHT22;38173;52.850;6.970;2022-12-05T16:58:08;4.40;99.90
52203;DHT22;38173;52.850;6.970;2022-12-05T17:00:35;4.40;99.90
52203;DHT22;38173;52.850;6.970;2022-12-05T17:03:04;4.40;99.90
52203;DHT22;38173;52.850;6.970;2022-12-05T17:05:32;4.40;99.90
52203;DHT22;38173;52.850;6.970;2022-12-05T17:07:58;4.40;99.90
52203;DHT22;38173;52.850;6.970;2022-12-05T17:10:24;4.40;99.90
52203;DHT22;38173;52.850;6.970;2022-12-05T17:12:50;4.40;99.90
52203;DHT22;38173;52.850;6.970;2022-12-05T17:15:25;4.50;99.90
52203;DHT22;38173;52.850;6.970;2022-12-05T17:17:51;4.40;99.90
52203;DHT22;38173;52.850;6.970;2022-12-05T17:20:16;4.50;99.90
52203;DHT22;38173;52.850;6.970;2022-12-05T17:22:42;4.40;99.90
52203;DHT22;38173;52.850;6.970;2022-12-05T17:25:27;4.40;99.90
52203;DHT22;38173;52.850;6.970;2022-12-05T17:27:55;4.40;99.90
52203;DHT22;38173;52.850;6.970;2022-12-05T17:30:25;4.40;99.90
52203;DHT22;38173;52.850;6.970;2022-12-05T17:32:51;4.40;99.90
52203;DHT22;38173;52.850;6.970;2022-12-05T17:35:17;4.40;99.90
52203;DHT22;38173;52.850;6.970;2022-12-05T17:37:53;4.40;99.90
52203;DHT22;38173;52.850;6.970;2022-12-05T17:40:18;4.40;99.90
52203;DHT22;38173;52.850;6.970;2022-12-05T17:42:44;4.40;99.90
52203;DHT22;38173;52.850;6.970;2022-12-05T17:45:12;4.40;99.90
52203;DHT22;38173;52.850;6.970;2022-12-05T17:47:38;4.40;99.90
52203;DHT22;38173;52.850;6.970;2022-12-05T17:50:04;4.40;99.90
52203;DHT22;38173;52.850;6.970;2022-12-05T17:52:32;4.40;99.90
52203;DHT22;38173;52.850;6.970;2022-12-05T17:55:04;4.40;99.90
52203;DHT22;38173;52.850;6.970;2022-12-05T17:57:30;4.40;99.90
52203;DHT22;38173;52.850;6.970;2022-12-05T17:59:55;4.40;99.90
52203;DHT22;38173;52.850;6.970;2022-12-05T18:02:22;4.40;99.90
52203;DHT22;38173;52.850;6.970;2022-12-05T18:04:49;4.40;99.90
52203;DHT22;38173;52.850;6.970;2022-12-05T18:07:17;4.40;99.90
52203;DHT22;38173;52.850;6.970;2022-12-05T18:09:43;4.40;99.90
52203;DHT22;38173;52.850;6.970;2022-12-05T18:12:09;4.40;99.90
52203;DHT22;38173;52.850;6.970;2022-12-05T18:14:35;4.40;99.90
52203;DHT22;38173;52.850;6.970;2022-12-05T18:17:01;4.40;99.90
52203;DHT22;38173;52.850;6.970;2022-12-05T18:19:28;4.40;99.90
52203;DHT22;38173;52.850;6.970;2022-12-05T18:21:55;4.40;99.90
52203;DHT22;38173;52.850;6.970;2022-12-05T18:24:26;4.40;99.90
52203;DHT22;38173;52.850;6.970;2022-12-05T18:26:52;4.40;99.90
52203;DHT22;38173;52.850;6.970;2022-12-05T18:29:20;4.40;99.90
52203;DHT22;38173;52.850;6.970;2022-12-05T18:31:47;4.40;99.90
52203;DHT22;38173;52.850;6.970;2022-12-05T18:34:15;4.40;99.90
52203;DHT22;38173;52.850;6.970;2022-12-05T18:36:41;4.40;99.90
52203;DHT22;38173;52.850;6.970;2022-12-05T18:39:09;4.40;99.90
52203;DHT22;38173;52.850;6.970;2022-12-05T18:41:35;4.40;99.90
52203;DHT22;38173;52.850;6.970;2022-12-05T18:44:01;4.40;99.90
52203;DHT22;38173;52.850;6.970;2022-12-05T18:46:29;4.30;99.90
52203;DHT22;38173;52.850;6.970;2022-12-05T18:48:55;4.40;99.90
52203;DHT22;38173;52.850;6.970;2022-12-05T18:51:22;4.40;99.90
52203;DHT22;38173;52.850;6.970;2022-12-05T18:53:57;4.30;99.90
52203;DHT22;38173;52.850;6.970;2022-12-05T18:56:24;4.40;99.90
52203;DHT22;38173;52.850;6.970;2022-12-05T18:58:57;4.40;99.90
52203;DHT22;38173;52.850;6.970;2022-12-05T19:01:26;4.30;99.90